Time;durP1;ratioP1;P1;durP2;ratioP2;P2;SDS_P1;SDS_P2;PMS_P1;PMS_P2;Temp;Humidity;BMP_temperature;BMP_pressure;BME280_temperature;BME280_humidity;BME280_pressure;Samples;Min_cycle;Max_cycle;Signal;HPM_P1;HPM_P2
2023/11/03 00:00:26;;;;;;;;;;;;;;;20.79;30.00;97249.06;4887009;29;965;-76
2023/11/03 00:02:52;;;;;;;;;;;;;;;20.64;29.92;97247.97;4887370;29;1160;-77
2023/11/03 00:05:18;;;;;;;;;;;;;;;21.05;29.52;97249.75;4902691;29;1910;-77
2023/11/03 00:07:44;;;;;;;;;;;;;;;20.71;29.90;97242.06;4899371;29;937;-76
2023/11/03 00:10:10;;;;;;;;;;;;;;;20.95;29.58;97244.47;4868613;29;1260;-77
2023/11/03 00:12:35;;;;;;;;;;;;;;;20.86;29.87;97236.69;4868579;29;1281;-76
2023/11/03 00:15:01;;;;;;;;;;;;;;;20.79;29.93;97234.94;4868464;29;1301;-76
2023/11/03 00:17:27;;;;;;;;;;;;;;;20.93;29.53;97230.00;4868491;29;1191;-76
2023/11/03 00:19:53;;;;;;;;;;;;;;;20.78;29.90;97230.53;4865145;29;1107;-77
2023/11/03 00:22:18;;;;;;;;;;;;;;;20.76;29.91;97227.34;4880876;29;947;-76
2023/11/03 00:24:44;;;;;;;;;;;;;;;20.57;30.44;97219.94;4880812;29;1986;-76
2023/11/03 00:27:09;;;;;;;;;;;;;;;20.75;30.08;97214.47;4865154;29;951;-76
2023/11/03 00:29:34;;;;;;;;;;;;;;;20.83;29.90;97211.38;4864824;29;1114;-76
2023/11/03 00:32:00;;;;;;;;;;;;;;;20.91;29.73;97204.22;4865236;29;900;-77
2023/11/03 00:34:25;;;;;;;;;;;;;;;20.74;30.00;97195.94;4864980;29;1177;-76
2023/11/03 00:36:52;;;;;;;;;;;;;;;20.92;29.72;97197.31;4880769;29;1021;-77
2023/11/03 00:39:18;;;;;;;;;;;;;;;21.04;29.71;97185.16;4871077;29;915;-76
2023/11/03 00:41:46;;;;;;;;;;;;;;;20.91;29.85;97175.94;4865247;29;973;-77
2023/11/03 00:44:12;;;;;;;;;;;;;;;21.02;29.70;97174.28;4865036;29;1914;-76
2023/11/03 00:46:38;;;;;;;;;;;;;;;20.72;29.90;97178.63;4880639;29;965;-76
2023/11/03 00:49:04;;;;;;;;;;;;;;;21.02;29.48;97176.34;4864726;29;1169;-77
2023/11/03 00:51:30;;;;;;;;;;;;;;;21.12;29.42;97180.81;4864990;29;918;-77
2023/11/03 00:53:56;;;;;;;;;;;;;;;20.97;29.69;97176.94;4849479;29;1071;-76
2023/11/03 00:56:22;;;;;;;;;;;;;;;21.19;29.40;97172.06;4865055;29;1243;-76
2023/11/03 00:58:47;;;;;;;;;;;;;;;21.11;29.31;97167.91;4865118;29;980;-77
2023/11/03 01:01:14;;;;;;;;;;;;;;;21.25;29.21;97173.03;4880780;29;913;-76
2023/11/03 01:03:39;;;;;;;;;;;;;;;21.02;29.58;97173.50;4861378;29;1006;-76
2023/11/03 01:06:05;;;;;;;;;;;;;;;21.04;29.30;97179.50;4877333;29;1974;-76
2023/11/03 01:08:32;;;;;;;;;;;;;;;21.08;29.44;97175.28;4861877;29;1147;-76
2023/11/03 01:10:57;;;;;;;;;;;;;;;21.05;29.32;97178.25;4864919;29;1220;-77
2023/11/03 01:13:23;;;;;;;;;;;;;;;20.86;29.80;97173.72;4880296;29;941;-76
2023/11/03 01:15:48;;;;;;;;;;;;;;;21.23;29.29;97169.88;4880428;29;1009;-77
2023/11/03 01:18:15;;;;;;;;;;;;;;;21.00;29.45;97173.19;4880363;29;1116;-76
2023/11/03 01:20:41;;;;;;;;;;;;;;;21.02;29.51;97170.69;4897573;29;1091;-77
2023/11/03 01:23:07;;;;;;;;;;;;;;;20.93;29.87;97171.41;4901971;29;1003;-76
2023/11/03 01:25:32;;;;;;;;;;;;;;;20.86;30.02;97174.50;4902108;29;1907;-77
2023/11/03 01:27:59;;;;;;;;;;;;;;;20.90;29.99;97182.84;4918151;29;1012;-77
2023/11/03 01:30:25;;;;;;;;;;;;;;;20.68;30.09;97177.19;4880179;29;1667;-76
2023/11/03 01:32:53;;;;;;;;;;;;;;;20.80;29.85;97182.78;4880310;29;992;-77
2023/11/03 01:35:21;;;;;;;;;;;;;;;20.81;30.04;97187.19;4849465;29;1276;-76
2023/11/03 01:37:47;;;;;;;;;;;;;;;20.86;29.83;97185.03;4849451;29;1279;-77
2023/11/03 01:40:14;;;;;;;;;;;;;;;20.91;29.61;97179.56;4868327;29;906;-77
2023/11/03 01:42:40;;;;;;;;;;;;;;;20.91;29.69;97181.59;4886583;29;1202;-77
2023/11/03 01:45:05;;;;;;;;;;;;;;;20.89;29.90;97175.63;4902070;29;1899;-77
2023/11/03 01:47:31;;;;;;;;;;;;;;;20.61;30.19;97174.59;4902357;29;979;-77
2023/11/03 01:49:57;;;;;;;;;;;;;;;20.91;29.54;97173.13;4886361;29;1186;-76
2023/11/03 01:52:23;;;;;;;;;;;;;;;20.96;29.49;97172.53;4901958;29;1099;-77
2023/11/03 01:54:49;;;;;;;;;;;;;;;20.98;29.34;97187.78;4901979;29;1125;-77
2023/11/03 01:57:15;;;;;;;;;;;;;;;21.06;29.29;97182.66;4901979;29;1390;-76
2023/11/03 01:59:40;;;;;;;;;;;;;;;20.72;30.10;97177.84;4864511;29;1285;-76
2023/11/03 02:02:06;;;;;;;;;;;;;;;21.03;29.51;97172.25;4878350;29;1107;-77
2023/11/03 02:04:32;;;;;;;;;;;;;;;21.07;29.53;97175.75;4885713;29;1923;-77
2023/11/03 02:06:57;;;;;;;;;;;;;;;21.13;29.44;97170.28;4882993;29;934;-76
2023/11/03 02:09:23;;;;;;;;;;;;;;;21.10;29.44;97168.38;4867475;29;1087;-77
2023/11/03 02:11:51;;;;;;;;;;;;;;;21.01;29.35;97174.75;4852376;29;1070;-77
2023/11/03 02:14:16;;;;;;;;;;;;;;;21.11;29.12;97165.09;4852335;29;949;-77
2023/11/03 02:16:42;;;;;;;;;;;;;;;21.07;29.31;97175.75;4836690;29;1066;-77
2023/11/03 02:19:09;;;;;;;;;;;;;;;20.99;29.49;97182.94;4851793;29;1186;-76
2023/11/03 02:21:37;;;;;;;;;;;;;;;21.04;29.60;97179.50;4852067;29;1224;-76
2023/11/03 02:24:06;;;;;;;;;;;;;;;20.86;29.73;97197.13;4851818;29;1109;-76
2023/11/03 02:26:31;;;;;;;;;;;;;;;21.02;29.61;97194.09;4848596;29;1911;-77
2023/11/03 02:28:57;;;;;;;;;;;;;;;20.73;30.06;97188.72;4848899;29;1032;-76
2023/11/03 02:31:22;;;;;;;;;;;;;;;20.85;29.75;97194.75;4830822;29;1337;-77
2023/11/03 02:33:48;;;;;;;;;;;;;;;21.00;29.64;97198.66;4827494;29;1041;-76
2023/11/03 02:36:17;;;;;;;;;;;;;;;21.06;29.32;97199.63;4841779;29;986;-76
2023/11/03 02:38:43;;;;;;;;;;;;;;;20.68;30.09;97200.59;4875751;29;1113;-77
2023/11/03 02:41:08;;;;;;;;;;;;;;;20.64;30.11;97214.06;4845207;29;1174;-76
2023/11/03 02:43:34;;;;;;;;;;;;;;;20.94;29.34;97208.97;4845105;29;981;-76
2023/11/03 02:45:59;;;;;;;;;;;;;;;20.66;29.71;97182.50;4845327;29;1974;-77
2023/11/03 02:48:25;;;;;;;;;;;;;;;20.96;29.24;97220.59;4830274;29;1127;-77
2023/11/03 02:50:51;;;;;;;;;;;;;;;20.88;29.66;97216.44;4845032;29;1332;-76
2023/11/03 02:53:18;;;;;;;;;;;;;;;20.68;30.09;97220.38;4829880;29;1253;-77
2023/11/03 02:55:43;;;;;;;;;;;;;;;20.88;29.73;97199.47;4845259;29;993;-77
2023/11/03 02:58:09;;;;;;;;;;;;;;;21.10;29.43;97194.63;4829822;29;1249;-77
2023/11/03 03:00:35;;;;;;;;;;;;;;;20.94;29.34;97203.31;4845199;29;1292;-77
2023/11/03 03:03:01;;;;;;;;;;;;;;;20.91;29.67;97205.00;4847194;29;1239;-77
2023/11/03 03:05:27;;;;;;;;;;;;;;;21.01;29.26;97203.03;4863354;29;1943;-77
2023/11/03 03:07:52;;;;;;;;;;;;;;;21.00;29.17;97204.31;4865656;29;930;-76
2023/11/03 03:10:18;;;;;;;;;;;;;;;21.05;29.06;97206.53;4882038;29;1116;-76
2023/11/03 03:12:47;;;;;;;;;;;;;;;21.25;29.03;97200.53;4882022;29;1429;-76
2023/11/03 03:15:12;;;;;;;;;;;;;;;21.04;29.28;97196.47;4881638;29;993;-77
2023/11/03 03:17:38;;;;;;;;;;;;;;;21.02;29.04;97198.97;4890476;29;1322;-77
2023/11/03 03:20:04;;;;;;;;;;;;;;;20.90;29.68;97197.00;4942867;29;951;-76
2023/11/03 03:22:29;;;;;;;;;;;;;;;21.02;29.23;97190.47;4926655;29;1133;-76
2023/11/03 03:24:55;;;;;;;;;;;;;;;20.85;29.71;97200.41;4926529;29;1911;-76
2023/11/03 03:27:20;;;;;;;;;;;;;;;20.80;29.84;97194.09;4926536;29;1250;-76
2023/11/03 03:29:46;;;;;;;;;;;;;;;20.87;29.45;97197.91;4959511;29;946;-76
2023/11/03 03:32:11;;;;;;;;;;;;;;;20.83;29.74;97198.06;4942415;29;929;-77
2023/11/03 03:34:37;;;;;;;;;;;;;;;20.76;29.79;97189.81;4910022;29;1631;-76
2023/11/03 03:37:02;;;;;;;;;;;;;;;20.76;29.49;97187.78;4926263;29;1128;-76
2023/11/03 03:39:28;;;;;;;;;;;;;;;20.88;29.53;97196.66;4926621;29;1029;-76
2023/11/03 03:41:53;;;;;;;;;;;;;;;20.98;29.25;97204.75;4942573;29;889;-77
2023/11/03 03:44:19;;;;;;;;;;;;;;;20.99;29.28;97205.56;4941909;29;1907;-77
2023/11/03 03:46:44;;;;;;;;;;;;;;;20.96;29.62;97212.13;4942361;29;1011;-77
2023/11/03 03:49:10;;;;;;;;;;;;;;;21.03;29.01;97206.97;4926563;29;1319;-77
2023/11/03 03:51:35;;;;;;;;;;;;;;;21.18;29.21;97212.91;4910614;29;1059;-76
2023/11/03 03:54:01;;;;;;;;;;;;;;;20.95;29.33;97210.53;4941675;29;877;-77
2023/11/03 03:56:26;;;;;;;;;;;;;;;20.91;29.61;97215.53;4942077;29;1007;-77
2023/11/03 03:58:52;;;;;;;;;;;;;;;20.98;29.43;97213.22;4941672;29;1041;-76
2023/11/03 04:01:19;;;;;;;;;;;;;;;20.73;29.89;97202.84;4925975;29;1097;-77
2023/11/03 04:03:44;;;;;;;;;;;;;;;20.97;29.58;97208.03;4944754;28;1064;-75
2023/11/03 04:06:10;;;;;;;;;;;;;;;20.86;29.82;97214.09;4960403;28;1914;-76
2023/11/03 04:08:37;;;;;;;;;;;;;;;20.92;29.60;97219.94;4944697;28;880;-77
2023/11/03 04:11:03;;;;;;;;;;;;;;;20.62;30.11;97219.38;4960994;28;950;-79
2023/11/03 04:13:28;;;;;;;;;;;;;;;20.79;29.44;97206.66;4945033;28;953;-77
2023/11/03 04:15:54;;;;;;;;;;;;;;;20.86;29.71;97213.28;4960679;28;876;-77
2023/11/03 04:18:19;;;;;;;;;;;;;;;21.08;29.32;97194.28;4977680;28;853;-76
2023/11/03 04:20:45;;;;;;;;;;;;;;;21.02;29.41;97199.75;4944610;28;1307;-77
2023/11/03 04:23:12;;;;;;;;;;;;;;;21.19;28.89;97203.19;4978051;28;866;-77
2023/11/03 04:25:38;;;;;;;;;;;;;;;21.11;29.05;97201.06;4945034;28;1907;-77
2023/11/03 04:28:05;;;;;;;;;;;;;;;21.01;29.35;97203.03;4944254;28;756;-77
2023/11/03 04:30:32;;;;;;;;;;;;;;;20.61;30.14;97186.69;4928847;28;1105;-77
2023/11/03 04:32:58;;;;;;;;;;;;;;;21.05;29.47;97183.91;4944716;28;1452;-77
2023/11/03 04:35:23;;;;;;;;;;;;;;;20.89;29.42;97178.47;4961063;28;920;-77
2023/11/03 04:37:49;;;;;;;;;;;;;;;20.89;29.50;97178.47;4944730;28;1382;-76
2023/11/03 04:40:15;;;;;;;;;;;;;;;20.71;29.73;97177.03;4944643;28;916;-77
2023/11/03 04:42:41;;;;;;;;;;;;;;;20.87;29.77;97175.28;4956118;29;1009;-77
2023/11/03 04:45:08;;;;;;;;;;;;;;;20.79;29.65;97169.13;4956076;29;1914;-77
2023/11/03 04:47:33;;;;;;;;;;;;;;;20.89;29.47;97167.16;4940527;29;968;-77
2023/11/03 04:49:59;;;;;;;;;;;;;;;20.95;29.43;97159.63;4940231;29;1017;-77
2023/11/03 04:52:25;;;;;;;;;;;;;;;20.65;29.79;97161.94;4923998;29;999;-76
2023/11/03 04:54:50;;;;;;;;;;;;;;;20.71;29.93;97157.25;4940346;29;1097;-78
2023/11/03 04:57:17;;;;;;;;;;;;;;;20.81;29.71;97160.94;4924485;29;1220;-77
2023/11/03 04:59:43;;;;;;;;;;;;;;;21.15;29.21;97168.56;4940145;29;907;-77
2023/11/03 05:02:08;;;;;;;;;;;;;;;20.67;29.82;97156.59;4940594;29;1150;-77
2023/11/03 05:04:34;;;;;;;;;;;;;;;20.81;29.76;97167.38;4939952;29;1914;-77
2023/11/03 05:07:01;;;;;;;;;;;;;;;21.14;29.45;97178.31;4956240;29;1033;-77
2023/11/03 05:09:26;;;;;;;;;;;;;;;20.92;29.70;97172.66;4956197;29;988;-77
2023/11/03 05:11:52;;;;;;;;;;;;;;;21.01;29.49;97180.41;4955744;29;906;-78
2023/11/03 05:14:17;;;;;;;;;;;;;;;20.76;29.67;97176.47;4956872;28;905;-77
2023/11/03 05:16:43;;;;;;;;;;;;;;;20.84;29.76;97181.88;4943734;29;905;-77
2023/11/03 05:19:09;;;;;;;;;;;;;;;21.18;29.37;97178.94;4943753;29;913;-77
2023/11/03 05:21:35;;;;;;;;;;;;;;;20.85;29.77;97189.09;4911660;29;1247;-77
2023/11/03 05:24:02;;;;;;;;;;;;;;;20.95;29.57;97193.56;4943037;29;866;-77
2023/11/03 05:26:28;;;;;;;;;;;;;;;21.00;29.25;97190.16;4927455;29;1974;-77
2023/11/03 05:28:55;;;;;;;;;;;;;;;20.93;29.74;97176.25;4905227;29;1130;-77
2023/11/03 05:31:21;;;;;;;;;;;;;;;21.18;29.37;97156.31;4921031;29;975;-77
2023/11/03 05:33:47;;;;;;;;;;;;;;;20.88;29.68;97145.75;4905331;29;847;-77
2023/11/03 05:36:12;;;;;;;;;;;;;;;21.00;29.61;97139.25;4920987;29;928;-77
2023/11/03 05:38:40;;;;;;;;;;;;;;;20.94;29.73;97136.22;4920608;29;785;-77
2023/11/03 05:41:07;;;;;;;;;;;;;;;20.91;29.72;97114.53;4920803;29;777;-77
2023/11/03 05:43:33;;;;;;;;;;;;;;;20.89;29.87;97121.91;4889583;29;1216;-77
2023/11/03 05:45:59;;;;;;;;;;;;;;;20.85;29.75;97132.56;4905029;29;1918;-77
2023/11/03 05:48:25;;;;;;;;;;;;;;;20.81;30.07;97139.13;4923210;29;1359;-77
2023/11/03 05:50:51;;;;;;;;;;;;;;;20.73;30.09;97143.47;4939833;29;789;-78
2023/11/03 05:53:16;;;;;;;;;;;;;;;20.59;29.89;97126.25;4901648;29;1236;-76
2023/11/03 05:55:42;;;;;;;;;;;;;;;20.70;30.34;97163.38;4902180;29;841;-77
2023/11/03 05:58:08;;;;;;;;;;;;;;;20.88;29.76;97166.38;4901752;29;744;-77
2023/11/03 06:00:34;;;;;;;;;;;;;;;21.10;29.40;97149.38;4931472;29;949;-78
2023/11/03 06:03:00;;;;;;;;;;;;;;;21.14;29.53;97155.69;4939998;29;831;-77
2023/11/03 06:05:25;;;;;;;;;;;;;;;20.94;29.57;97152.41;4882565;29;1969;-77
2023/11/03 06:07:51;;;;;;;;;;;;;;;20.88;29.71;97151.41;4867280;29;856;-76
2023/11/03 06:10:17;;;;;;;;;;;;;;;21.01;29.37;97152.13;4867045;29;904;-77
2023/11/03 06:12:42;;;;;;;;;;;;;;;20.70;30.09;97155.69;4882689;29;741;-77
2023/11/03 06:15:08;;;;;;;;;;;;;;;20.60;30.27;97150.41;4882529;29;907;-78
2023/11/03 06:17:34;;;;;;;;;;;;;;;20.76;30.28;97151.03;4830161;29;1312;-77
2023/11/03 06:19:59;;;;;;;;;;;;;;;20.85;29.88;97150.31;4830049;29;848;-77
2023/11/03 06:22:25;;;;;;;;;;;;;;;20.94;29.91;97152.41;4830280;29;938;-77
2023/11/03 06:24:50;;;;;;;;;;;;;;;20.90;29.88;97148.94;4826882;29;1900;-78
2023/11/03 06:27:16;;;;;;;;;;;;;;;21.08;29.49;97163.16;4826131;29;772;-77
2023/11/03 06:29:41;;;;;;;;;;;;;;;21.04;29.71;97162.53;4828481;29;1069;-77
2023/11/03 06:32:07;;;;;;;;;;;;;;;21.02;29.67;97170.69;4845256;29;816;-77
2023/11/03 06:34:33;;;;;;;;;;;;;;;20.93;30.14;97179.09;4829884;29;894;-77
2023/11/03 06:36:58;;;;;;;;;;;;;;;20.73;30.28;97171.75;4872424;29;1313;-76
2023/11/03 06:39:24;;;;;;;;;;;;;;;20.95;30.11;97170.94;4866766;29;834;-77
2023/11/03 06:41:49;;;;;;;;;;;;;;;21.31;29.37;97181.75;4882071;29;828;-77
2023/11/03 06:44:15;;;;;;;;;;;;;;;21.23;29.43;97177.56;4866707;29;784;-77
2023/11/03 06:46:41;;;;;;;;;;;;;;;21.25;29.33;97184.34;4882331;29;1982;-77
2023/11/03 06:49:07;;;;;;;;;;;;;;;21.14;29.72;97183.97;4882025;29;926;-78
2023/11/03 06:51:33;;;;;;;;;;;;;;;20.94;29.79;97189.19;4866638;29;843;-77
2023/11/03 06:53:58;;;;;;;;;;;;;;;20.83;30.20;97191.59;4832409;29;889;-77
2023/11/03 06:56:25;;;;;;;;;;;;;;;21.22;29.32;97179.59;4894136;29;775;-77
2023/11/03 06:58:50;;;;;;;;;;;;;;;21.40;29.39;97195.13;4863127;29;874;-77
2023/11/03 07:01:16;;;;;;;;;;;;;;;20.76;30.34;97182.13;4847930;29;890;-78
2023/11/03 07:03:41;;;;;;;;;;;;;;;21.07;29.69;97161.59;4866068;29;1053;-78
2023/11/03 07:06:08;;;;;;;;;;;;;;;20.98;30.12;97156.66;4866273;29;1907;-77
2023/11/03 07:08:33;;;;;;;;;;;;;;;21.25;29.62;97127.78;4866363;29;954;-77
2023/11/03 07:10:59;;;;;;;;;;;;;;;21.38;29.43;97124.06;4881967;29;800;-77
2023/11/03 07:13:25;;;;;;;;;;;;;;;20.94;29.85;97118.47;4881394;29;915;-77
2023/11/03 07:15:51;;;;;;;;;;;;;;;20.80;30.13;97119.78;4866518;29;746;-77
2023/11/03 07:18:16;;;;;;;;;;;;;;;21.10;29.81;97120.31;4866132;29;863;-77
2023/11/03 07:20:42;;;;;;;;;;;;;;;20.93;30.19;97123.31;4881641;29;796;-77
2023/11/03 07:23:08;;;;;;;;;;;;;;;20.89;30.34;97136.03;4865844;29;740;-77
2023/11/03 07:25:33;;;;;;;;;;;;;;;20.90;29.93;97135.56;4881235;29;1891;-77
2023/11/03 07:27:59;;;;;;;;;;;;;;;20.77;30.33;97138.44;4865924;29;1673;-77
2023/11/03 07:30:24;;;;;;;;;;;;;;;21.03;29.89;97141.13;4909611;29;776;-77
2023/11/03 07:32:50;;;;;;;;;;;;;;;21.11;29.75;97133.97;4959546;28;752;-77
2023/11/03 07:35:16;;;;;;;;;;;;;;;20.80;30.54;97120.59;4959087;28;850;-77
2023/11/03 07:37:42;;;;;;;;;;;;;;;21.12;29.73;97129.09;4942241;29;1191;-77
2023/11/03 07:40:08;;;;;;;;;;;;;;;21.42;29.46;97136.03;4958155;29;748;-78
2023/11/03 07:42:34;;;;;;;;;;;;;;;20.88;30.27;97137.28;4958050;29;810;-77
2023/11/03 07:44:59;;;;;;;;;;;;;;;21.10;30.05;97138.06;4958143;29;1964;-77
2023/11/03 07:47:25;;;;;;;;;;;;;;;21.43;29.41;97120.63;4958890;28;810;-77
2023/11/03 07:49:50;;;;;;;;;;;;;;;21.03;29.96;97127.78;4958949;28;723;-77
2023/11/03 07:52:16;;;;;;;;;;;;;;;20.93;30.46;97119.72;4958003;29;883;-77
2023/11/03 07:54:43;;;;;;;;;;;;;;;21.04;30.34;97120.91;4941661;29;1192;-77
2023/11/03 07:57:09;;;;;;;;;;;;;;;21.25;29.78;97122.09;4941035;29;860;-77
2023/11/03 07:59:35;;;;;;;;;;;;;;;21.11;30.01;97105.69;4957637;29;1109;-77
2023/11/03 08:02:01;;;;;;;;;;;;;;;21.19;29.92;97106.19;4941904;29;834;-77
2023/11/03 08:04:27;;;;;;;;;;;;;;;21.07;30.27;97100.16;4957890;29;1040;-77
2023/11/03 08:06:55;;;;;;;;;;;;;;;21.27;29.80;97099.78;4957639;29;1910;-77
2023/11/03 08:09:21;;;;;;;;;;;;;;;21.05;29.96;97091.34;4957224;29;974;-77
2023/11/03 08:11:47;;;;;;;;;;;;;;;21.19;30.11;97090.03;4941142;29;807;-77
2023/11/03 08:14:13;;;;;;;;;;;;;;;21.02;30.08;97094.31;4941422;29;1242;-77
2023/11/03 08:16:42;;;;;;;;;;;;;;;21.22;30.20;97083.41;4941056;29;784;-77
2023/11/03 08:19:08;;;;;;;;;;;;;;;21.42;29.50;97085.09;4941044;29;783;-77
2023/11/03 08:21:42;;;;;;;;;;;;;;;21.35;29.72;97079.72;4958148;28;851;-77
2023/11/03 08:24:10;;;;;;;;;;;;;;;21.04;30.26;97072.03;4958174;28;782;-77
2023/11/03 08:26:36;;;;;;;;;;;;;;;21.05;30.52;97057.41;4901805;29;1986;-77
2023/11/03 08:29:03;;;;;;;;;;;;;;;21.14;30.20;97062.34;4917994;29;908;-77
2023/11/03 08:31:29;;;;;;;;;;;;;;;21.39;30.30;97052.06;5220031;23;3875;-75
2023/11/03 08:33:55;;;;;;;;;;;;;;;22.10;30.27;97060.41;4979957;28;1250;-75
2023/11/03 08:36:20;;;;;;;;;;;;;;;22.30;30.36;97043.75;5100888;23;3732;-77
2023/11/03 08:38:47;;;;;;;;;;;;;;;22.49;31.06;97029.56;4924657;29;1126;-77
2023/11/03 08:41:12;;;;;;;;;;;;;;;22.18;31.27;97016.38;4957184;29;853;-77
2023/11/03 08:43:38;;;;;;;;;;;;;;;21.97;31.40;97020.13;4958067;29;783;-77
2023/11/03 08:46:04;;;;;;;;;;;;;;;21.82;31.09;97017.91;4958291;29;1910;-77
2023/11/03 08:48:29;;;;;;;;;;;;;;;21.62;31.27;97020.38;4958011;28;866;-77
2023/11/03 08:50:55;;;;;;;;;;;;;;;21.56;30.99;97008.13;4944874;29;1225;-77
2023/11/03 08:53:23;;;;;;;;;;;;;;;21.36;31.08;96990.78;4961209;29;861;-77
2023/11/03 08:55:50;;;;;;;;;;;;;;;21.23;30.90;97000.13;4945470;29;1282;-77
2023/11/03 08:58:16;;;;;;;;;;;;;;;21.23;30.99;96999.34;4945129;29;1328;-77
2023/11/03 09:00:44;;;;;;;;;;;;;;;20.97;30.91;97008.03;4961143;28;755;-77
2023/11/03 09:03:10;;;;;;;;;;;;;;;21.21;30.28;97019.59;4945244;29;1108;-77
2023/11/03 09:05:36;;;;;;;;;;;;;;;21.18;30.23;97014.88;4944926;29;1910;-77
2023/11/03 09:08:02;;;;;;;;;;;;;;;21.25;29.99;97005.34;4961790;28;787;-77
2023/11/03 09:10:31;;;;;;;;;;;;;;;21.36;29.77;97008.53;4944918;29;1184;-77
2023/11/03 09:12:57;;;;;;;;;;;;;;;21.05;29.83;97005.72;4960483;29;929;-77
2023/11/03 09:15:23;;;;;;;;;;;;;;;21.27;29.58;96997.16;4940298;29;1233;-77
2023/11/03 09:17:48;;;;;;;;;;;;;;;21.22;29.28;97012.69;4924446;29;861;-77
2023/11/03 09:20:18;;;;;;;;;;;;;;;21.03;29.78;97008.22;4924452;29;880;-77
2023/11/03 09:22:45;;;;;;;;;;;;;;;20.88;29.67;97018.50;4924682;29;815;-77
2023/11/03 09:25:12;;;;;;;;;;;;;;;21.11;29.03;97003.84;4940697;29;2007;-77
2023/11/03 09:27:38;;;;;;;;;;;;;;;21.03;29.14;97009.00;4940302;29;794;-77
2023/11/03 09:30:05;;;;;;;;;;;;;;;21.14;29.05;97000.09;4924074;29;1188;-78
2023/11/03 09:32:30;;;;;;;;;;;;;;;20.79;29.46;97000.28;4940255;29;842;-77
2023/11/03 09:34:56;;;;;;;;;;;;;;;20.65;29.47;96968.94;4956198;29;1135;-77
2023/11/03 09:37:22;;;;;;;;;;;;;;;20.81;29.23;96958.16;4940912;29;1348;-77
2023/11/03 09:39:48;;;;;;;;;;;;;;;20.62;29.22;96953.69;4943392;29;770;-77
2023/11/03 09:42:15;;;;;;;;;;;;;;;20.80;28.90;96962.25;4959505;29;814;-77
2023/11/03 09:44:40;;;;;;;;;;;;;;;20.67;28.82;96961.56;4943123;29;1989;-77
2023/11/03 09:47:06;;;;;;;;;;;;;;;20.72;29.01;96960.94;4976281;28;948;-77
2023/11/03 09:49:32;;;;;;;;;;;;;;;20.74;28.97;96964.13;4979402;28;1046;-76
2023/11/03 09:52:02;;;;;;;;;;;;;;;20.87;28.48;96966.03;4979633;28;720;-77
2023/11/03 09:54:29;;;;;;;;;;;;;;;20.92;28.36;96956.97;4963207;28;878;-77
2023/11/03 09:56:55;;;;;;;;;;;;;;;21.30;28.54;96954.59;4963575;28;756;-77
2023/11/03 09:59:21;;;;;;;;;;;;;;;21.55;28.87;96949.91;4962946;28;1362;-77
2023/11/03 10:01:47;;;;;;;;;;;;;;;21.65;29.04;96950.69;4961869;28;874;-77
2023/11/03 10:04:12;;;;;;;;;;;;;;;21.68;28.71;96950.56;4978826;28;1383;-77
2023/11/03 10:06:38;;;;;;;;;;;;;;;21.24;29.26;96959.28;4963184;28;1981;-77
2023/11/03 10:09:05;;;;;;;;;;;;;;;21.26;29.35;96959.59;4977761;28;937;-77
2023/11/03 10:11:31;;;;;;;;;;;;;;;21.10;29.36;96954.19;4962082;28;877;-77
2023/11/03 10:13:57;;;;;;;;;;;;;;;20.97;28.89;96943.00;4961824;28;1140;-77
2023/11/03 10:16:22;;;;;;;;;;;;;;;20.72;29.56;96927.03;4960816;28;1461;-77
2023/11/03 10:18:48;;;;;;;;;;;;;;;20.79;29.45;96934.47;4978260;28;1272;-77
2023/11/03 10:21:13;;;;;;;;;;;;;;;20.94;29.32;96932.63;4977899;28;1011;-77
2023/11/03 10:23:39;;;;;;;;;;;;;;;20.74;29.38;96924.53;4961795;28;952;-77
2023/11/03 10:26:05;;;;;;;;;;;;;;;21.12;28.70;96926.22;4961757;28;1902;-78
2023/11/03 10:28:32;;;;;;;;;;;;;;;20.90;28.69;96922.72;4961319;28;767;-77
2023/11/03 10:30:57;;;;;;;;;;;;;;;20.82;29.01;96919.38;4961893;28;1130;-77
2023/11/03 10:33:24;;;;;;;;;;;;;;;20.96;28.38;96906.72;4945906;28;1237;-77
2023/11/03 10:35:51;;;;;;;;;;;;;;;21.11;28.30;96896.38;4966403;28;1176;-77
2023/11/03 10:38:18;;;;;;;;;;;;;;;20.65;28.68;96887.75;4980855;28;814;-77
2023/11/03 10:40:44;;;;;;;;;;;;;;;20.72;28.62;96883.84;4964881;28;1071;-77
2023/11/03 10:43:09;;;;;;;;;;;;;;;20.67;28.71;96879.59;4980461;28;760;-77
2023/11/03 10:45:36;;;;;;;;;;;;;;;20.67;28.59;96890.88;4981047;28;1965;-77
2023/11/03 10:48:09;;;;;;;;;;;;;;;20.73;28.79;96874.91;4978124;28;916;-77
2023/11/03 10:50:35;;;;;;;;;;;;;;;20.65;28.88;96881.31;4962294;28;779;-78
2023/11/03 10:53:20;;;;;;;;;;;;;;;21.11;28.70;96881.44;4978426;28;715;-77
2023/11/03 10:55:47;;;;;;;;;;;;;;;21.16;28.90;96883.66;4976987;28;946;-77
2023/11/03 10:58:12;;;;;;;;;;;;;;;21.40;28.58;96883.84;4961079;28;889;-77
2023/11/03 11:00:38;;;;;;;;;;;;;;;21.50;28.49;96876.94;4961108;28;782;-77
2023/11/03 11:03:18;;;;;;;;;;;;;;;21.32;28.85;96878.50;4977084;28;788;-77
2023/11/03 11:05:57;;;;;;;;;;;;;;;21.08;28.87;96880.31;4976713;28;1899;-77
2023/11/03 11:08:23;;;;;;;;;;;;;;;21.02;28.64;96871.69;4976719;28;708;-77
2023/11/03 11:10:49;;;;;;;;;;;;;;;20.92;28.64;96863.66;4960863;28;847;-78
2023/11/03 11:13:17;;;;;;;;;;;;;;;20.55;29.58;96861.50;4960260;28;1401;-77
2023/11/03 11:16:02;;;;;;;;;;;;;;;20.68;29.17;96866.28;4944888;28;898;-77
2023/11/03 11:18:31;;;;;;;;;;;;;;;20.73;28.95;96863.63;4976498;28;1028;-77
2023/11/03 11:21:06;;;;;;;;;;;;;;;20.76;29.02;96845.69;4960662;28;913;-77
2023/11/03 11:23:33;;;;;;;;;;;;;;;20.48;29.23;96838.41;4960359;28;895;-77
2023/11/03 11:26:02;;;;;;;;;;;;;;;20.61;28.77;96830.59;4945143;28;1962;-77
2023/11/03 11:28:40;;;;;;;;;;;;;;;20.41;29.10;96838.66;4977294;28;723;-77
2023/11/03 11:31:33;;;;;;;;;;;;;;;20.50;29.15;96847.19;4978902;28;866;-77
2023/11/03 11:34:05;;;;;;;;;;;;;;;20.78;28.71;96846.03;4937784;29;1011;-77
2023/11/03 11:36:32;;;;;;;;;;;;;;;21.38;28.20;96835.44;4913360;29;1299;-77
2023/11/03 11:39:06;;;;;;;;;;;;;;;21.55;27.95;96828.19;4906204;29;1148;-77
2023/11/03 11:41:33;;;;;;;;;;;;;;;21.32;28.34;96833.25;4937787;29;806;-77
2023/11/03 11:43:59;;;;;;;;;;;;;;;21.44;28.11;96833.56;4884396;29;1218;-77
2023/11/03 11:46:24;;;;;;;;;;;;;;;21.49;27.73;96830.09;4900148;29;1906;-77
2023/11/03 11:48:50;;;;;;;;;;;;;;;21.04;28.38;96840.13;4899728;29;1126;-77
2023/11/03 11:51:15;;;;;;;;;;;;;;;21.03;28.53;96830.03;4884371;29;1179;-77
2023/11/03 11:53:41;;;;;;;;;;;;;;;20.68;28.52;96833.13;4899611;29;825;-78
2023/11/03 11:56:07;;;;;;;;;;;;;;;20.79;28.44;96824.22;4899992;29;787;-78
2023/11/03 11:58:32;;;;;;;;;;;;;;;20.81;28.46;96822.47;4884072;29;1467;-77
2023/11/03 12:00:58;;;;;;;;;;;;;;;20.65;28.59;96819.91;4899627;29;884;-77
2023/11/03 12:03:23;;;;;;;;;;;;;;;20.71;28.70;96823.69;4899837;29;898;-77
2023/11/03 12:05:50;;;;;;;;;;;;;;;20.88;28.29;96824.22;4862028;29;1895;-77
2023/11/03 12:08:17;;;;;;;;;;;;;;;20.90;28.51;96832.22;4862470;29;805;-77
2023/11/03 12:10:49;;;;;;;;;;;;;;;21.57;27.54;96825.69;4898883;29;975;-78
2023/11/03 12:13:15;;;;;;;;;;;;;;;21.44;27.79;96827.91;4902990;29;802;-77
2023/11/03 12:15:41;;;;;;;;;;;;;;;21.42;28.00;96819.09;4917691;29;1328;-77
2023/11/03 12:18:07;;;;;;;;;;;;;;;21.20;28.18;96808.69;4921423;29;1244;-77
2023/11/03 12:20:32;;;;;;;;;;;;;;;20.99;28.33;96820.94;4921611;29;787;-77
2023/11/03 12:22:59;;;;;;;;;;;;;;;21.05;28.12;96802.09;4921606;29;727;-77
2023/11/03 12:25:24;;;;;;;;;;;;;;;20.95;28.33;96803.34;4920769;29;1902;-76
2023/11/03 12:27:54;;;;;;;;;;;;;;;20.66;28.58;96793.22;4921312;29;767;-77
2023/11/03 12:30:20;;;;;;;;;;;;;;;20.63;28.77;96799.84;4905551;29;1630;-78
2023/11/03 12:32:46;;;;;;;;;;;;;;;20.72;28.50;96791.34;4937317;29;1056;-77
2023/11/03 12:35:11;;;;;;;;;;;;;;;20.59;28.94;96796.38;4921263;29;807;-77
2023/11/03 12:37:43;;;;;;;;;;;;;;;20.72;28.33;96791.34;4955598;29;1097;-77
2023/11/03 12:40:19;;;;;;;;;;;;;;;20.80;28.25;96781.31;4940669;29;756;-77
2023/11/03 12:42:44;;;;;;;;;;;;;;;20.65;28.63;96780.34;4940353;29;807;-77
2023/11/03 12:45:10;;;;;;;;;;;;;;;20.52;28.91;96776.84;4957135;29;1902;-77
2023/11/03 12:47:37;;;;;;;;;;;;;;;21.14;27.95;96782.31;4957133;28;1176;-77
2023/11/03 12:50:19;;;;;;;;;;;;;;;21.21;27.84;96758.56;4957404;28;1303;-77
2023/11/03 12:52:49;;;;;;;;;;;;;;;21.39;27.98;96746.47;4957725;28;882;-77
2023/11/03 12:55:21;;;;;;;;;;;;;;;21.38;27.80;96739.25;4956949;29;1305;-77
2023/11/03 12:57:47;;;;;;;;;;;;;;;20.99;28.33;96741.78;4957004;29;1215;-77